Delta Billie — WDE8059 — position and weather

sailwx.info

Track history (hours):
 
Tides and Currents Weather Stations Pressure Air Temp Water Temp Dewpoint Dewpoint Depression Visibility Wind Speed Wind Dir Waves Ship Positions

Delta Billie

Owner: Baydelta Maritime, San Francicso, CA. More information available from US FCC via Universal Licensing System and Coast Guard Vessel Documentation Center.

Last reported at 2017-Feb-23 11:33 UTC. Time now 2017-Feb-23 11:43 UTC.
Position N 37°49' W 122°19'.

Length 30 m; draft 5.5 m.

Type: Towing. MMSI: 367401030.

Date/timePositionNaut miles runAvg speedWind from/ knotsBaromVisibWave heightAir tempDewpointWater temp
2017-Feb-23 11:33N 37°49' W 122°19'0 0.4
2017-Feb-23 10:33N 37°49' W 122°20'0 0.0
2017-Feb-23 09:33N 37°49' W 122°20'1 1.0
2017-Feb-23 08:33N 37°48' W 122°19'0 0.2
2017-Feb-23 07:33N 37°48' W 122°19'0 0.5
2017-Feb-23 06:33N 37°48' W 122°18'3 2.7
2017-Feb-23 05:33N 37°48' W 122°22'1 1.1
2017-Feb-23 04:33N 37°48' W 122°21'2 2.5
2017-Feb-23 03:33N 37°48' W 122°18'0 0.2
2017-Feb-23 02:33N 37°48' W 122°18'4 3.8
2017-Feb-23 01:33N 37°48' W 122°23'4 4.3
2017-Feb-23 00:33N 37°52' W 122°24'3 3.4
2017-Feb-22 23:33N 37°55' W 122°22'0 0.0
2017-Feb-22 22:33N 37°55' W 122°22'0 0.0
2017-Feb-22 21:33N 37°55' W 122°22'5 5.1
2017-Feb-22 20:33N 37°50' W 122°24'2 2.1
2017-Feb-22 19:33N 37°48' W 122°24'0 0.0
2017-Feb-22 18:33N 37°48' W 122°24'0 0.0
2017-Feb-22 17:33N 37°48' W 122°24'0 0.0
2017-Feb-22 16:33N 37°48' W 122°24'0 0.0
2017-Feb-22 15:33N 37°48' W 122°24'4 3.9
2017-Feb-22 14:33N 37°48' W 122°19'2 1.5
2017-Feb-22 13:33N 37°48' W 122°21'2 2.4
2017-Feb-22 12:33N 37°48' W 122°24'0 0.0
2017-Feb-22 11:33N 37°48' W 122°24'0 0.0
2017-Feb-22 10:33N 37°48' W 122°24'0 0.0
2017-Feb-22 09:33N 37°48' W 122°24'0 0.0
2017-Feb-22 08:33N 37°48' W 122°24'0 0.0
2017-Feb-22 07:33N 37°48' W 122°24'3 3.3
2017-Feb-22 06:33N 37°51' W 122°25'4 4.0
2017-Feb-22 05:33N 37°55' W 122°22'2 2.3
2017-Feb-22 04:34N 37°55' W 122°25'2 2.3
2017-Feb-22 03:34N 37°55' W 122°22'0 0.2
2017-Feb-22 02:33N 37°55' W 122°22'7 6.6
2017-Feb-22 01:33N 37°48' W 122°24'0 0.1
2017-Feb-22 00:33N 37°48' W 122°24'0 0.0
2017-Feb-21 23:33N 37°48' W 122°24'0 0.0
2017-Feb-21 22:33N 37°48' W 122°24'0 0.0
2017-Feb-21 21:33N 37°48' W 122°24'0 0.0
2017-Feb-21 20:33N 37°48' W 122°24'6 5.9
2017-Feb-21 19:33N 37°54' W 122°25'2 1.6
2017-Feb-21 18:33N 37°55' W 122°25'0 0.0
2017-Feb-21 17:33N 37°55' W 122°25'0 0.0
2017-Feb-21 16:33N 37°55' W 122°25'0 0.0
2017-Feb-21 15:33N 37°55' W 122°25'0 0.0
2017-Feb-21 14:33N 37°55' W 122°25'0 0.0
2017-Feb-21 13:33N 37°56' W 122°25'0 0.0
2017-Feb-21 12:33N 37°55' W 122°25'0 0.0
2017-Feb-21 11:33N 37°55' W 122°25'0 0.0
2017-Feb-21 10:32N 37°55' W 122°25'0 0.0
2017-Feb-21 09:33N 37°55' W 122°25'0 0.0
2017-Feb-21 08:33N 37°55' W 122°25'0 0.0
2017-Feb-21 07:32N 37°55' W 122°25'0 0.0
2017-Feb-21 06:33N 37°56' W 122°25'0 0.0
2017-Feb-21 05:33N 37°55' W 122°25'0 0.0
2017-Feb-21 04:34N 37°55' W 122°25'1 0.7
2017-Feb-21 03:34N 37°55' W 122°25'1 0.7
2017-Feb-21 02:33N 37°56' W 122°25'0 0.4
2017-Feb-21 01:33N 37°55' W 122°25'1 0.7
2017-Feb-21 00:33N 37°55' W 122°25'1 0.6
2017-Feb-20 23:33N 37°56' W 122°25'0 0.0
2017-Feb-20 22:33N 37°56' W 122°25'2 2.5
2017-Feb-20 21:33N 37°55' W 122°22'0 0.0
2017-Feb-20 20:33N 37°55' W 122°22'2 1.6
2017-Feb-20 19:33N 37°54' W 122°24'5 4.6
2017-Feb-20 18:33N 37°50' W 122°27'4 3.8
2017-Feb-20 17:33N 37°49' W 122°31'4 4.2
2017-Feb-20 16:33N 37°52' W 122°27'4 4.2
2017-Feb-20 15:33N 37°56' W 122°25'0 0.0
2017-Feb-20 14:33N 37°56' W 122°25'0 0.0
2017-Feb-20 13:33N 37°56' W 122°25'0 0.1
2017-Feb-20 12:33N 37°56' W 122°25'0 0.3
2017-Feb-20 11:33N 37°55' W 122°25'5 5.4
2017-Feb-20 10:33N 37°50' W 122°24'2 1.9
2017-Feb-20 09:33N 37°48' W 122°24'0 0.0
2017-Feb-20 08:33N 37°48' W 122°24'0 0.0
2017-Feb-20 07:33N 37°48' W 122°24'0 0.0
2017-Feb-20 06:33N 37°48' W 122°24'0 0.0
2017-Feb-20 05:33N 37°48' W 122°24'0 0.0
2017-Feb-20 04:33N 37°48' W 122°24'0 0.0
2017-Feb-20 03:33N 37°48' W 122°24'0 0.1
2017-Feb-20 02:33N 37°48' W 122°24'5 4.9
2017-Feb-20 01:34N 37°44' W 122°21'8 8.1
2017-Feb-20 00:33N 37°49' W 122°29'2 2.0
2017-Feb-19 23:33N 37°49' W 122°32'3 3.5
2017-Feb-19 22:33N 37°51' W 122°28'9 9.4
2017-Feb-19 21:33N 37°60' W 122°25'8 1.0
2017-Feb-19 13:29N 38°04' W 122°16'8 8.1
2017-Feb-19 12:33N 38°01' W 122°24'9 8.6
2017-Feb-19 11:33N 37°52' W 122°25'6 5.8
2017-Feb-19 10:33N 37°49' W 122°31'4 4.5
2017-Feb-19 09:33N 37°49' W 122°26'2 1.5
2017-Feb-19 08:33N 37°48' W 122°24'0 0.0
2017-Feb-19 07:33N 37°48' W 122°24'0 0.0
2017-Feb-19 06:33N 37°48' W 122°24'0 0.0
2017-Feb-19 05:33N 37°48' W 122°24'0 0.0
2017-Feb-19 04:33N 37°48' W 122°24'0 0.0
2017-Feb-19 03:33N 37°48' W 122°24'0 0.0
2017-Feb-19 02:33N 37°48' W 122°24'0 0.0
2017-Feb-19 01:33N 37°48' W 122°24'0 0.0
2017-Feb-19 00:33N 37°48' W 122°24'0 0.0
2017-Feb-18 23:33N 37°48' W 122°24'0 0.0
2017-Feb-18 22:33N 37°48' W 122°24'1 1.0
2017-Feb-18 21:33N 37°49' W 122°24'6 6.4
2017-Feb-18 20:33N 37°55' W 122°25'2 2.2
2017-Feb-18 19:33N 37°53' W 122°25'5 4.6
2017-Feb-18 18:33N 37°49' W 122°24'1 0.7
2017-Feb-18 17:33N 37°48' W 122°24'0 0.0
2017-Feb-18 16:33N 37°48' W 122°24'0 0.0
2017-Feb-18 15:33N 37°48' W 122°24'3 2.9
2017-Feb-18 14:33N 37°49' W 122°20'0 0.4
2017-Feb-18 13:33N 37°49' W 122°20'3 3.3
2017-Feb-18 12:33N 37°48' W 122°24'0 0.0
2017-Feb-18 11:33N 37°48' W 122°24'0 0.0
2017-Feb-18 10:33N 37°48' W 122°24'1 0.6
2017-Feb-18 09:33N 37°48' W 122°23'3 2.8
2017-Feb-18 08:33N 37°49' W 122°20'3 3.4
2017-Feb-18 07:33N 37°48' W 122°24'0 0.0
2017-Feb-18 06:33N 37°48' W 122°24'0 0.0
2017-Feb-18 05:33N 37°48' W 122°24'0 0.0
2017-Feb-18 04:33N 37°48' W 122°24'0 0.0
2017-Feb-18 03:33N 37°48' W 122°24'0 0.0
2017-Feb-18 02:33N 37°48' W 122°24'0 0.0
2017-Feb-18 01:33N 37°48' W 122°24'3 3.4
2017-Feb-18 00:33N 37°49' W 122°20'2 1.7
2017-Feb-17 23:34N 37°48' W 122°22'2 1.7
2017-Feb-17 22:33N 37°48' W 122°24'0 0.0
2017-Feb-17 21:33N 37°48' W 122°24'0 0.0
2017-Feb-17 20:33N 37°48' W 122°24'0 0.0
2017-Feb-17 19:33N 37°48' W 122°24'0 0.0
2017-Feb-17 18:33N 37°48' W 122°24'0 0.0
2017-Feb-17 17:33N 37°48' W 122°24'0 0.0
2017-Feb-17 16:33N 37°48' W 122°24'0 0.0
2017-Feb-17 15:33N 37°48' W 122°24'3 3.5
2017-Feb-17 14:33N 37°49' W 122°20'1 0.8
2017-Feb-17 13:33N 37°48' W 122°20'1 0.8
2017-Feb-17 12:34N 37°48' W 122°19'1 1.1
2017-Feb-17 11:34N 37°48' W 122°20'3 3.2
2017-Feb-17 10:33N 37°48' W 122°24'0 0.0
2017-Feb-17 09:33N 37°48' W 122°24'0 0.0
2017-Feb-17 08:33N 37°48' W 122°24'0 0.0
2017-Feb-17 07:33N 37°48' W 122°24'0 0.0
2017-Feb-17 06:33N 37°48' W 122°24'0 0.0
2017-Feb-17 05:33N 37°48' W 122°24'0 0.0
2017-Feb-17 04:33N 37°48' W 122°24'0 0.0
2017-Feb-17 03:33N 37°48' W 122°24'3 3.3
2017-Feb-17 02:34N 37°49' W 122°20'1 0.5
2017-Feb-17 01:33N 37°48' W 122°20'3 2.8
2017-Feb-17 00:33N 37°48' W 122°24'0 0.0
2017-Feb-16 23:33N 37°48' W 122°24'0 0.0
2017-Feb-16 22:33N 37°48' W 122°24'0 0.0
2017-Feb-16 21:33N 37°48' W 122°24'0 0.0
2017-Feb-16 20:33N 37°48' W 122°24'0 0.0
2017-Feb-16 19:33N 37°48' W 122°24'0 0.0
2017-Feb-16 18:33N 37°48' W 122°24'0 0.0
2017-Feb-16 17:33N 37°48' W 122°24'0 0.0
2017-Feb-16 16:33N 37°48' W 122°24'4 4.4
2017-Feb-16 15:33N 37°52' W 122°25'1010.1
2017-Feb-16 14:33N 38°02' W 122°21'5 5.3
2017-Feb-16 13:33N 38°04' W 122°14'1 0.7
2017-Feb-16 12:33N 38°04' W 122°14'6 6.2
2017-Feb-16 11:33N 38°03' W 122°06'7 0.6
2017-Feb-16 00:05N 38°03' W 122°15'0 0.4
2017-Feb-15 23:31N 38°04' W 122°14'0 0.0
2017-Feb-15 22:33N 38°04' W 122°14'8 7.9
2017-Feb-15 21:32N 38°00' W 122°24'6 6.2
2017-Feb-15 20:33N 37°55' W 122°22'1 0.6
2017-Feb-15 19:33N 37°54' W 122°22'8 8.1
2017-Feb-15 18:33N 38°02' W 122°21'6 0.3
2017-Feb-14 22:09N 38°04' W 122°13'710.2
2017-Feb-14 21:28N 38°02' W 122°22'7 8.2
2017-Feb-14 20:33N 37°54' W 122°24'2 1.6
2017-Feb-14 19:34N 37°55' W 122°22'0 0.0
2017-Feb-14 18:33N 37°55' W 122°22'0 0.0
2017-Feb-14 17:33N 37°55' W 122°22'0 0.1
2017-Feb-14 16:33N 37°55' W 122°22'1 1.5
2017-Feb-14 15:33N 37°54' W 122°24'4 4.1
2017-Feb-14 14:34N 37°51' W 122°26'5 4.8
2017-Feb-14 13:33N 37°48' W 122°31'3 2.6
2017-Feb-14 12:34N 37°49' W 122°28'6 6.4
2017-Feb-14 11:34N 37°49' W 122°19'0 0.4
2017-Feb-14 10:34N 37°49' W 122°20'2 1.9
2017-Feb-14 09:33N 37°48' W 122°22'6 6.3
2017-Feb-14 08:34N 37°49' W 122°30'5 5.1
2017-Feb-14 07:34N 37°52' W 122°25'3 3.3
2017-Feb-14 06:33N 37°55' W 122°25'8 8.4
2017-Feb-14 05:34N 37°48' W 122°19'0 0.0
2017-Feb-14 04:33N 37°48' W 122°19'1 0.6
2017-Feb-14 03:34N 37°48' W 122°19'4 4.1
2017-Feb-14 02:33N 37°48' W 122°24'0 0.0
2017-Feb-14 01:33N 37°48' W 122°24'0 0.0
2017-Feb-14 00:33N 37°48' W 122°24'6 5.5
2017-Feb-13 23:33N 37°49' W 122°31'5 5.5
2017-Feb-13 22:34N 37°51' W 122°25'10 9.6
2017-Feb-13 21:33N 38°01' W 122°24'9 9.1
2017-Feb-13 20:32N 38°04' W 122°13'4 4.1
2017-Feb-13 19:33N 38°02' W 122°08'0 0.0
2017-Feb-13 14:24N 38°02' W 122°08'6 6.9
2017-Feb-13 13:33N 38°04' W 122°15'0 0.4
2017-Feb-13 12:33N 38°03' W 122°16'2 2.0
2017-Feb-13 11:34N 38°04' W 122°13'  
Track history (hours):
 
Tides and Currents Weather Stations Pressure Air Temp Water Temp Dewpoint Dewpoint Depression Visibility Wind Speed Wind Dir Waves Ship Positions

Delta Billie

Owner: Baydelta Maritime, San Francicso, CA. More information available from US FCC via Universal Licensing System and Coast Guard Vessel Documentation Center.

Last reported at 2017-Feb-23 11:33 UTC. Time now 2017-Feb-23 11:43 UTC.
Position N 37°49' W 122°19'.

Length 30 m; draft 5.5 m.

Type: Towing. MMSI: 367401030.

Date/timePositionNaut miles runAvg speedWind from/ knotsBaromVisibWave heightAir tempDewpointWater temp
2017-Feb-23 11:33N 37°49' W 122°19'0 0.4
2017-Feb-23 10:33N 37°49' W 122°20'0 0.0
2017-Feb-23 09:33N 37°49' W 122°20'1 1.0
2017-Feb-23 08:33N 37°48' W 122°19'0 0.2
2017-Feb-23 07:33N 37°48' W 122°19'0 0.5
2017-Feb-23 06:33N 37°48' W 122°18'3 2.7
2017-Feb-23 05:33N 37°48' W 122°22'1 1.1
2017-Feb-23 04:33N 37°48' W 122°21'2 2.5
2017-Feb-23 03:33N 37°48' W 122°18'0 0.2
2017-Feb-23 02:33N 37°48' W 122°18'4 3.8
2017-Feb-23 01:33N 37°48' W 122°23'4 4.3
2017-Feb-23 00:33N 37°52' W 122°24'3 3.4
2017-Feb-22 23:33N 37°55' W 122°22'0 0.0
2017-Feb-22 22:33N 37°55' W 122°22'0 0.0
2017-Feb-22 21:33N 37°55' W 122°22'5 5.1
2017-Feb-22 20:33N 37°50' W 122°24'2 2.1
2017-Feb-22 19:33N 37°48' W 122°24'0 0.0
2017-Feb-22 18:33N 37°48' W 122°24'0 0.0
2017-Feb-22 17:33N 37°48' W 122°24'0 0.0
2017-Feb-22 16:33N 37°48' W 122°24'0 0.0
2017-Feb-22 15:33N 37°48' W 122°24'4 3.9
2017-Feb-22 14:33N 37°48' W 122°19'2 1.5
2017-Feb-22 13:33N 37°48' W 122°21'2 2.4
2017-Feb-22 12:33N 37°48' W 122°24'0 0.0
2017-Feb-22 11:33N 37°48' W 122°24'0 0.0
2017-Feb-22 10:33N 37°48' W 122°24'0 0.0
2017-Feb-22 09:33N 37°48' W 122°24'0 0.0
2017-Feb-22 08:33N 37°48' W 122°24'0 0.0
2017-Feb-22 07:33N 37°48' W 122°24'3 3.3
2017-Feb-22 06:33N 37°51' W 122°25'4 4.0
2017-Feb-22 05:33N 37°55' W 122°22'2 2.3
2017-Feb-22 04:34N 37°55' W 122°25'2 2.3
2017-Feb-22 03:34N 37°55' W 122°22'0 0.2
2017-Feb-22 02:33N 37°55' W 122°22'7 6.6
2017-Feb-22 01:33N 37°48' W 122°24'0 0.1
2017-Feb-22 00:33N 37°48' W 122°24'0 0.0
2017-Feb-21 23:33N 37°48' W 122°24'0 0.0
2017-Feb-21 22:33N 37°48' W 122°24'0 0.0
2017-Feb-21 21:33N 37°48' W 122°24'0 0.0
2017-Feb-21 20:33N 37°48' W 122°24'6 5.9
2017-Feb-21 19:33N 37°54' W 122°25'2 1.6
2017-Feb-21 18:33N 37°55' W 122°25'0 0.0
2017-Feb-21 17:33N 37°55' W 122°25'0 0.0
2017-Feb-21 16:33N 37°55' W 122°25'0 0.0
2017-Feb-21 15:33N 37°55' W 122°25'0 0.0
2017-Feb-21 14:33N 37°55' W 122°25'0 0.0
2017-Feb-21 13:33N 37°56' W 122°25'0 0.0
2017-Feb-21 12:33N 37°55' W 122°25'0 0.0
2017-Feb-21 11:33N 37°55' W 122°25'0 0.0
2017-Feb-21 10:32N 37°55' W 122°25'0 0.0
2017-Feb-21 09:33N 37°55' W 122°25'0 0.0
2017-Feb-21 08:33N 37°55' W 122°25'0 0.0
2017-Feb-21 07:32N 37°55' W 122°25'0 0.0
2017-Feb-21 06:33N 37°56' W 122°25'0 0.0
2017-Feb-21 05:33N 37°55' W 122°25'0 0.0
2017-Feb-21 04:34N 37°55' W 122°25'1 0.7
2017-Feb-21 03:34N 37°55' W 122°25'1 0.7
2017-Feb-21 02:33N 37°56' W 122°25'0 0.4
2017-Feb-21 01:33N 37°55' W 122°25'1 0.7
2017-Feb-21 00:33N 37°55' W 122°25'1 0.6
2017-Feb-20 23:33N 37°56' W 122°25'0 0.0
2017-Feb-20 22:33N 37°56' W 122°25'2 2.5
2017-Feb-20 21:33N 37°55' W 122°22'0 0.0
2017-Feb-20 20:33N 37°55' W 122°22'2 1.6
2017-Feb-20 19:33N 37°54' W 122°24'5 4.6
2017-Feb-20 18:33N 37°50' W 122°27'4 3.8
2017-Feb-20 17:33N 37°49' W 122°31'4 4.2
2017-Feb-20 16:33N 37°52' W 122°27'4 4.2
2017-Feb-20 15:33N 37°56' W 122°25'0 0.0
2017-Feb-20 14:33N 37°56' W 122°25'0 0.0
2017-Feb-20 13:33N 37°56' W 122°25'0 0.1
2017-Feb-20 12:33N 37°56' W 122°25'0 0.3
2017-Feb-20 11:33N 37°55' W 122°25'5 5.4
2017-Feb-20 10:33N 37°50' W 122°24'2 1.9
2017-Feb-20 09:33N 37°48' W 122°24'0 0.0
2017-Feb-20 08:33N 37°48' W 122°24'0 0.0
2017-Feb-20 07:33N 37°48' W 122°24'0 0.0
2017-Feb-20 06:33N 37°48' W 122°24'0 0.0
2017-Feb-20 05:33N 37°48' W 122°24'0 0.0
2017-Feb-20 04:33N 37°48' W 122°24'0 0.0
2017-Feb-20 03:33N 37°48' W 122°24'0 0.1
2017-Feb-20 02:33N 37°48' W 122°24'5 4.9
2017-Feb-20 01:34N 37°44' W 122°21'8 8.1
2017-Feb-20 00:33N 37°49' W 122°29'2 2.0
2017-Feb-19 23:33N 37°49' W 122°32'3 3.5
2017-Feb-19 22:33N 37°51' W 122°28'9 9.4
2017-Feb-19 21:33N 37°60' W 122°25'8 1.0
2017-Feb-19 13:29N 38°04' W 122°16'8 8.1
2017-Feb-19 12:33N 38°01' W 122°24'9 8.6
2017-Feb-19 11:33N 37°52' W 122°25'6 5.8
2017-Feb-19 10:33N 37°49' W 122°31'4 4.5
2017-Feb-19 09:33N 37°49' W 122°26'2 1.5
2017-Feb-19 08:33N 37°48' W 122°24'0 0.0
2017-Feb-19 07:33N 37°48' W 122°24'0 0.0
2017-Feb-19 06:33N 37°48' W 122°24'0 0.0
2017-Feb-19 05:33N 37°48' W 122°24'0 0.0
2017-Feb-19 04:33N 37°48' W 122°24'0 0.0
2017-Feb-19 03:33N 37°48' W 122°24'0 0.0
2017-Feb-19 02:33N 37°48' W 122°24'0 0.0
2017-Feb-19 01:33N 37°48' W 122°24'0 0.0
2017-Feb-19 00:33N 37°48' W 122°24'0 0.0
2017-Feb-18 23:33N 37°48' W 122°24'0 0.0
2017-Feb-18 22:33N 37°48' W 122°24'1 1.0
2017-Feb-18 21:33N 37°49' W 122°24'6 6.4
2017-Feb-18 20:33N 37°55' W 122°25'2 2.2
2017-Feb-18 19:33N 37°53' W 122°25'5 4.6
2017-Feb-18 18:33N 37°49' W 122°24'1 0.7
2017-Feb-18 17:33N 37°48' W 122°24'0 0.0
2017-Feb-18 16:33N 37°48' W 122°24'0 0.0
2017-Feb-18 15:33N 37°48' W 122°24'3 2.9
2017-Feb-18 14:33N 37°49' W 122°20'0 0.4
2017-Feb-18 13:33N 37°49' W 122°20'3 3.3
2017-Feb-18 12:33N 37°48' W 122°24'0 0.0
2017-Feb-18 11:33N 37°48' W 122°24'0 0.0
2017-Feb-18 10:33N 37°48' W 122°24'1 0.6
2017-Feb-18 09:33N 37°48' W 122°23'3 2.8
2017-Feb-18 08:33N 37°49' W 122°20'3 3.4
2017-Feb-18 07:33N 37°48' W 122°24'0 0.0
2017-Feb-18 06:33N 37°48' W 122°24'0 0.0
2017-Feb-18 05:33N 37°48' W 122°24'0 0.0
2017-Feb-18 04:33N 37°48' W 122°24'0 0.0
2017-Feb-18 03:33N 37°48' W 122°24'0 0.0
2017-Feb-18 02:33N 37°48' W 122°24'0 0.0
2017-Feb-18 01:33N 37°48' W 122°24'3 3.4
2017-Feb-18 00:33N 37°49' W 122°20'2 1.7
2017-Feb-17 23:34N 37°48' W 122°22'2 1.7
2017-Feb-17 22:33N 37°48' W 122°24'0 0.0
2017-Feb-17 21:33N 37°48' W 122°24'0 0.0
2017-Feb-17 20:33N 37°48' W 122°24'0 0.0
2017-Feb-17 19:33N 37°48' W 122°24'0 0.0
2017-Feb-17 18:33N 37°48' W 122°24'0 0.0
2017-Feb-17 17:33N 37°48' W 122°24'0 0.0
2017-Feb-17 16:33N 37°48' W 122°24'0 0.0
2017-Feb-17 15:33N 37°48' W 122°24'3 3.5
2017-Feb-17 14:33N 37°49' W 122°20'1 0.8
2017-Feb-17 13:33N 37°48' W 122°20'1 0.8
2017-Feb-17 12:34N 37°48' W 122°19'1 1.1
2017-Feb-17 11:34N 37°48' W 122°20'3 3.2
2017-Feb-17 10:33N 37°48' W 122°24'0 0.0
2017-Feb-17 09:33N 37°48' W 122°24'0 0.0
2017-Feb-17 08:33N 37°48' W 122°24'0 0.0
2017-Feb-17 07:33N 37°48' W 122°24'0 0.0
2017-Feb-17 06:33N 37°48' W 122°24'0 0.0
2017-Feb-17 05:33N 37°48' W 122°24'0 0.0
2017-Feb-17 04:33N 37°48' W 122°24'0 0.0
2017-Feb-17 03:33N 37°48' W 122°24'3 3.3
2017-Feb-17 02:34N 37°49' W 122°20'1 0.5
2017-Feb-17 01:33N 37°48' W 122°20'3 2.8
2017-Feb-17 00:33N 37°48' W 122°24'0 0.0
2017-Feb-16 23:33N 37°48' W 122°24'0 0.0
2017-Feb-16 22:33N 37°48' W 122°24'0 0.0
2017-Feb-16 21:33N 37°48' W 122°24'0 0.0
2017-Feb-16 20:33N 37°48' W 122°24'0 0.0
2017-Feb-16 19:33N 37°48' W 122°24'0 0.0
2017-Feb-16 18:33N 37°48' W 122°24'0 0.0
2017-Feb-16 17:33N 37°48' W 122°24'0 0.0
2017-Feb-16 16:33N 37°48' W 122°24'4 4.4
2017-Feb-16 15:33N 37°52' W 122°25'1010.1
2017-Feb-16 14:33N 38°02' W 122°21'5 5.3
2017-Feb-16 13:33N 38°04' W 122°14'1 0.7
2017-Feb-16 12:33N 38°04' W 122°14'6 6.2
2017-Feb-16 11:33N 38°03' W 122°06'7 0.6
2017-Feb-16 00:05N 38°03' W 122°15'0 0.4
2017-Feb-15 23:31N 38°04' W 122°14'0 0.0
2017-Feb-15 22:33N 38°04' W 122°14'8 7.9
2017-Feb-15 21:32N 38°00' W 122°24'6 6.2
2017-Feb-15 20:33N 37°55' W 122°22'1 0.6
2017-Feb-15 19:33N 37°54' W 122°22'8 8.1
2017-Feb-15 18:33N 38°02' W 122°21'6 0.3
2017-Feb-14 22:09N 38°04' W 122°13'710.2
2017-Feb-14 21:28N 38°02' W 122°22'7 8.2
2017-Feb-14 20:33N 37°54' W 122°24'2 1.6
2017-Feb-14 19:34N 37°55' W 122°22'0 0.0
2017-Feb-14 18:33N 37°55' W 122°22'0 0.0
2017-Feb-14 17:33N 37°55' W 122°22'0 0.1
2017-Feb-14 16:33N 37°55' W 122°22'1 1.5
2017-Feb-14 15:33N 37°54' W 122°24'4 4.1
2017-Feb-14 14:34N 37°51' W 122°26'5 4.8
2017-Feb-14 13:33N 37°48' W 122°31'3 2.6
2017-Feb-14 12:34N 37°49' W 122°28'6 6.4
2017-Feb-14 11:34N 37°49' W 122°19'0 0.4
2017-Feb-14 10:34N 37°49' W 122°20'2 1.9
2017-Feb-14 09:33N 37°48' W 122°22'6 6.3
2017-Feb-14 08:34N 37°49' W 122°30'5 5.1
2017-Feb-14 07:34N 37°52' W 122°25'3 3.3
2017-Feb-14 06:33N 37°55' W 122°25'8 8.4
2017-Feb-14 05:34N 37°48' W 122°19'0 0.0
2017-Feb-14 04:33N 37°48' W 122°19'1 0.6
2017-Feb-14 03:34N 37°48' W 122°19'4 4.1
2017-Feb-14 02:33N 37°48' W 122°24'0 0.0
2017-Feb-14 01:33N 37°48' W 122°24'0 0.0
2017-Feb-14 00:33N 37°48' W 122°24'6 5.5
2017-Feb-13 23:33N 37°49' W 122°31'5 5.5
2017-Feb-13 22:34N 37°51' W 122°25'10 9.6
2017-Feb-13 21:33N 38°01' W 122°24'9 9.1
2017-Feb-13 20:32N 38°04' W 122°13'4 4.1
2017-Feb-13 19:33N 38°02' W 122°08'0 0.0
2017-Feb-13 14:24N 38°02' W 122°08'6 6.9
2017-Feb-13 13:33N 38°04' W 122°15'0 0.4
2017-Feb-13 12:33N 38°03' W 122°16'2 2.0
2017-Feb-13 11:34N 38°04' W 122°13'  

Dump ship's entire track history